Time;durP1;ratioP1;P1;durP2;ratioP2;P2;SDS_P1;SDS_P2;PMS_P1;PMS_P2;Temp;Humidity;BMP_temperature;BMP_pressure;BME280_temperature;BME280_humidity;BME280_pressure;Samples;Min_cycle;Max_cycle;Signal;HPM_P1;HPM_P2
2022/07/14 00:02:12;;;;;;;29.40;11.93;;;;;;;12.39;100.00;101092.03;7388126;19;20416;-60
2022/07/14 00:04:41;;;;;;;25.20;8.60;;;;;;;12.41;100.00;101100.72;7392004;19;20924;-60
2022/07/14 00:07:11;;;;;;;18.07;3.90;;;;;;;12.32;100.00;101099.50;7386360;19;20411;-61
2022/07/14 00:09:41;;;;;;;17.83;3.60;;;;;;;12.28;100.00;101106.25;7394169;19;21384;-61
2022/07/14 00:12:10;;;;;;;13.77;3.10;;;;;;;12.29;100.00;101108.00;7388704;19;20429;-61
2022/07/14 00:14:40;;;;;;;11.80;3.50;;;;;;;12.24;100.00;101113.00;7392740;19;20392;-61
2022/07/14 00:17:12;;;;;;;13.20;3.37;;;;;;;12.26;100.00;101111.34;7385418;19;20433;-61
2022/07/14 00:19:42;;;;;;;17.90;2.80;;;;;;;12.26;100.00;101121.69;7393496;19;20726;-61
2022/07/14 00:22:12;;;;;;;15.53;3.20;;;;;;;12.15;100.00;101128.13;7386463;19;20427;-61
2022/07/14 00:24:41;;;;;;;12.00;3.73;;;;;;;12.31;100.00;101145.16;7391376;19;20395;-61
2022/07/14 00:27:11;;;;;;;13.90;3.10;;;;;;;12.34;100.00;101155.66;7386084;19;20486;-61
2022/07/14 00:29:41;;;;;;;13.60;2.67;;;;;;;12.21;100.00;101143.91;7392977;19;20388;-61
2022/07/14 00:32:13;;;;;;;9.20;2.60;;;;;;;12.06;100.00;101143.28;7384555;19;20403;-61
2022/07/14 00:34:42;;;;;;;10.57;3.20;;;;;;;12.32;100.00;101166.75;7390940;19;20376;-60
2022/07/14 00:37:12;;;;;;;11.03;3.07;;;;;;;12.22;100.00;101160.31;7385295;19;20419;-60
2022/07/14 00:42:32;;;;;;;10.10;2.90;;;;;;;12.09;100.00;101169.25;7385050;19;20490;-60
2022/07/14 00:45:02;;;;;;;21.27;6.33;;;;;;;12.10;100.00;101182.25;7391013;19;20975;-61
2022/07/14 00:47:34;;;;;;;10.60;3.20;;;;;;;12.20;100.00;101209.41;7385452;19;20424;-61
2022/07/14 00:50:05;;;;;;;16.10;4.47;;;;;;;12.12;100.00;101200.44;7395728;19;20407;-61
2022/07/14 00:52:41;;;;;;;14.57;3.40;;;;;;;12.08;100.00;101199.44;7384692;19;21095;-61
2022/07/14 00:55:12;;;;;;;14.47;3.50;;;;;;;12.13;100.00;101197.03;7391246;19;20416;-61
2022/07/14 00:57:42;;;;;;;22.43;4.40;;;;;;;12.12;100.00;101196.16;7384642;19;20955;-60
2022/07/14 01:00:14;;;;;;;9.10;2.53;;;;;;;12.12;100.00;101191.00;7399929;19;20391;-61
2022/07/14 01:02:47;;;;;;;12.10;2.70;;;;;;;12.12;100.00;101196.16;7390537;19;20417;-61
2022/07/14 01:05:17;;;;;;;10.40;3.13;;;;;;;11.95;100.00;101190.22;7396601;19;20423;-61
2022/07/14 01:07:47;;;;;;;11.73;2.53;;;;;;;11.87;100.00;101194.19;7391550;19;21352;-60
2022/07/14 01:10:17;;;;;;;12.40;3.07;;;;;;;11.76;100.00;101198.88;7399647;19;20402;-61
2022/07/14 01:12:47;;;;;;;12.67;3.13;;;;;;;11.71;100.00;101208.13;7392182;19;20424;-61
2022/07/14 01:15:17;;;;;;;9.03;2.93;;;;;;;11.68;100.00;101216.63;7397704;19;20403;-60
2022/07/14 01:17:50;;;;;;;12.13;3.87;;;;;;;11.71;100.00;101223.63;7391259;19;20421;-61
2022/07/14 01:20:20;;;;;;;24.10;6.03;;;;;;;11.66;100.00;101240.63;7399410;19;20390;-61
2022/07/14 01:22:54;;;;;;;8.90;3.07;;;;;;;11.60;100.00;101251.59;7390634;19;20479;-60
2022/07/14 01:25:23;;;;;;;13.23;3.63;;;;;;;11.64;100.00;101266.41;7396339;19;20440;-61
2022/07/14 01:27:53;;;;;;;14.90;3.43;;;;;;;11.58;100.00;101279.03;7391246;19;20943;-61
2022/07/14 01:30:23;;;;;;;14.50;2.83;;;;;;;11.53;100.00;101296.94;7388992;19;20411;-61
2022/07/14 01:32:52;;;;;;;8.30;2.13;;;;;;;11.45;100.00;101313.78;7391201;19;20414;-61
2022/07/14 01:35:22;;;;;;;9.07;2.60;;;;;;;11.31;100.00;101313.13;7396722;19;20418;-61
2022/07/14 01:37:54;;;;;;;10.97;2.70;;;;;;;11.29;100.00;101276.00;7390278;19;20425;-61
2022/07/14 01:40:24;;;;;;;17.70;3.17;;;;;;;11.27;100.00;101318.97;7398295;19;20385;-61
2022/07/14 01:42:53;;;;;;;18.23;3.33;;;;;;;11.22;100.00;101391.06;7390943;19;20418;-60
2022/07/14 01:45:23;;;;;;;14.83;3.33;;;;;;;11.31;100.00;101473.28;7395883;19;20422;-60
2022/07/14 01:47:52;;;;;;;12.17;3.33;;;;;;;11.30;100.00;101574.84;7387975;19;20422;-61
2022/07/14 01:50:21;;;;;;;12.77;3.17;;;;;;;11.22;100.00;101592.53;7401564;19;20380;-60
2022/07/14 01:52:54;;;;;;;16.67;4.10;;;;;;;11.15;100.00;101593.03;7390933;19;20419;-60
2022/07/14 01:55:24;;;;;;;14.87;3.00;;;;;;;11.21;100.00;101578.75;7396474;19;20413;-61
2022/07/14 01:57:53;;;;;;;17.07;3.50;;;;;;;11.23;100.00;101575.34;7389153;19;20414;-61
2022/07/14 02:00:23;;;;;;;11.87;3.50;;;;;;;11.18;100.00;101563.06;7397641;19;20733;-60
2022/07/14 02:02:52;;;;;;;13.50;2.63;;;;;;;11.06;100.00;101558.16;7388920;19;20424;-61
2022/07/14 02:05:22;;;;;;;17.70;3.30;;;;;;;11.07;100.00;101559.03;7397166;19;20433;-60
2022/07/14 02:07:54;;;;;;;16.23;4.90;;;;;;;11.03;100.00;101547.66;7390553;19;20426;-61
2022/07/14 02:13:06;;;;;;;16.30;3.60;;;;;;;11.17;100.00;102113.16;7390758;19;21013;-61
2022/07/14 02:15:35;;;;;;;15.10;4.03;;;;;;;11.07;100.00;102145.28;7395489;19;20433;-61
2022/07/14 02:18:05;;;;;;;25.23;5.13;;;;;;;11.02;100.00;102157.94;7389923;19;20429;-60
2022/07/14 02:20:35;;;;;;;21.73;4.57;;;;;;;10.94;100.00;102178.09;7396883;19;20384;-60
2022/07/14 02:23:07;;;;;;;13.37;3.27;;;;;;;10.86;100.00;102199.97;7390862;19;20416;-60
2022/07/14 02:25:36;;;;;;;17.63;3.77;;;;;;;10.84;100.00;102199.00;7395066;19;20478;-61
2022/07/14 02:28:06;;;;;;;10.10;3.20;;;;;;;10.79;100.00;102223.63;7387938;19;20414;-61
2022/07/14 02:30:36;;;;;;;9.03;2.70;;;;;;;10.67;100.00;102259.88;7397130;19;20385;-60
2022/07/14 02:33:05;;;;;;;9.60;2.63;;;;;;;10.65;100.00;102272.66;7388857;19;20426;-60
2022/07/14 02:35:35;;;;;;;12.73;3.30;;;;;;;10.64;100.00;102269.97;7394868;19;20940;-61
2022/07/14 02:38:07;;;;;;;9.33;2.90;;;;;;;10.61;100.00;102226.78;7388190;19;20413;-61
2022/07/14 02:40:36;;;;;;;16.17;3.43;;;;;;;10.82;100.00;102231.53;7396851;19;20383;-60
2022/07/14 02:43:06;;;;;;;12.57;2.90;;;;;;;10.70;100.00;102223.00;7388280;19;20415;-61
2022/07/14 02:45:35;;;;;;;12.13;3.80;;;;;;;10.59;100.00;102209.41;7398635;19;20421;-61
2022/07/14 02:48:06;;;;;;;9.83;3.40;;;;;;;10.56;100.00;102212.69;7387907;19;20422;-61
2022/07/14 02:50:36;;;;;;;19.77;3.00;;;;;;;10.56;100.00;102173.97;7396721;19;20408;-60
2022/07/14 02:53:08;;;;;;;16.70;3.63;;;;;;;10.49;100.00;102156.31;7390132;19;21007;-60
2022/07/14 02:55:38;;;;;;;10.33;3.50;;;;;;;10.51;100.00;102113.44;7394665;19;20408;-61
2022/07/14 02:58:07;;;;;;;12.37;3.40;;;;;;;10.54;100.00;102093.00;7389194;19;20420;-61
2022/07/14 03:00:37;;;;;;;11.20;3.20;;;;;;;10.55;100.00;102078.41;7396109;19;20399;-61
2022/07/14 03:03:06;;;;;;;16.03;4.33;;;;;;;10.56;100.00;102055.25;7388460;19;20418;-61
2022/07/14 03:05:36;;;;;;;10.13;3.00;;;;;;;10.59;100.00;102049.41;7394190;19;20429;-61
2022/07/14 03:08:08;;;;;;;10.77;3.43;;;;;;;10.62;100.00;102024.66;7387768;19;20417;-61
2022/07/14 03:10:38;;;;;;;11.00;3.20;;;;;;;10.73;100.00;102017.63;7396107;19;20432;-61
2022/07/14 03:13:08;;;;;;;10.73;3.13;;;;;;;10.79;100.00;102011.91;7387976;19;20503;-60
2022/07/14 03:15:38;;;;;;;15.40;4.43;;;;;;;10.77;100.00;101942.13;7394395;19;20420;-60
2022/07/14 03:18:07;;;;;;;13.20;5.50;;;;;;;10.73;100.00;101940.16;7385889;19;20418;-60
2022/07/14 03:20:37;;;;;;;13.57;4.20;;;;;;;10.75;100.00;101938.56;7392644;19;20392;-61
2022/07/14 03:23:09;;;;;;;14.23;4.43;;;;;;;11.03;100.00;101935.03;7388752;19;20771;-61
2022/07/14 03:25:39;;;;;;;48.57;6.90;;;;;;;11.07;100.00;101930.94;7393849;19;20499;-61
2022/07/14 03:28:08;;;;;;;11.50;3.43;;;;;;;11.04;100.00;101930.75;7387270;19;20752;-60
2022/07/14 03:30:38;;;;;;;8.20;3.00;;;;;;;10.89;100.00;101947.13;7395242;19;20378;-61
2022/07/14 03:33:07;;;;;;;9.50;2.87;;;;;;;10.74;100.00;101961.69;7386762;19;20425;-60
2022/07/14 03:35:39;;;;;;;13.93;4.13;;;;;;;10.75;100.00;101958.31;7392960;19;20421;-60
2022/07/14 03:38:11;;;;;;;16.77;5.77;;;;;;;10.88;100.00;101953.06;7388488;19;20410;-61
2022/07/14 03:41:03;;;;;;;11.30;4.10;;;;;;;11.65;100.00;101936.78;7394633;19;20397;-60
2022/07/14 03:43:34;;;;;;;7.87;3.47;;;;;;;11.78;100.00;101948.72;7386828;19;20437;-61
2022/07/14 03:46:04;;;;;;;10.40;3.97;;;;;;;11.74;100.00;101970.88;7392569;19;20424;-61
2022/07/14 03:48:34;;;;;;;11.73;3.70;;;;;;;11.33;100.00;101996.13;7387479;19;20414;-61
2022/07/14 03:51:04;;;;;;;11.87;3.70;;;;;;;11.24;100.00;102016.28;7394287;19;20394;-60
2022/07/14 03:53:37;;;;;;;19.77;4.00;;;;;;;11.85;100.00;102018.06;7385914;19;20414;-60
2022/07/14 03:56:06;;;;;;;10.17;3.30;;;;;;;11.77;100.00;102042.56;7392110;19;20955;-61
2022/07/14 03:58:36;;;;;;;12.20;4.23;;;;;;;11.48;100.00;102073.66;7388178;19;20425;-61
2022/07/14 04:01:06;;;;;;;16.07;4.23;;;;;;;11.25;100.00;102082.63;7394254;19;20386;-60
2022/07/14 04:03:36;;;;;;;14.70;3.80;;;;;;;11.28;100.00;102077.69;7388246;19;20442;-60
2022/07/14 04:06:06;;;;;;;11.90;3.00;;;;;;;11.11;100.00;102074.94;7392914;19;20423;-60
2022/07/14 04:08:38;;;;;;;10.97;3.30;;;;;;;11.03;100.00;102069.31;7385699;19;20419;-61
2022/07/14 04:11:07;;;;;;;12.50;4.23;;;;;;;10.96;100.00;102061.13;7393993;19;20913;-60
2022/07/14 04:13:38;;;;;;;10.43;4.40;;;;;;;11.01;100.00;102044.19;7386821;19;20955;-60
2022/07/14 04:16:08;;;;;;;8.03;3.10;;;;;;;11.30;100.00;102027.88;7392018;19;20430;-61
2022/07/14 04:18:37;;;;;;;9.20;3.90;;;;;;;11.51;100.00;102021.28;7383586;19;20416;-60
2022/07/14 04:21:10;;;;;;;14.93;3.40;;;;;;;11.50;100.00;102017.81;7393786;19;20409;-61
2022/07/14 04:23:43;;;;;;;15.93;3.80;;;;;;;11.78;100.00;102015.94;7385964;19;20417;-60
2022/07/14 04:26:13;;;;;;;13.10;4.23;;;;;;;11.91;100.00;102020.09;7391259;19;20510;-61
2022/07/14 04:28:42;;;;;;;10.30;3.70;;;;;;;11.79;100.00;102033.22;7385255;19;20425;-61
2022/07/14 04:31:12;;;;;;;9.17;3.50;;;;;;;11.67;100.00;102031.72;7393009;19;20396;-61
2022/07/14 04:33:41;;;;;;;17.87;3.30;;;;;;;11.57;100.00;102029.38;7386451;19;20412;-60
2022/07/14 04:36:11;;;;;;;9.90;3.10;;;;;;;11.57;100.00;102030.28;7391009;19;20427;-60
2022/07/14 04:38:43;;;;;;;11.03;3.13;;;;;;;11.63;100.00;102021.97;7384196;19;20417;-60
2022/07/14 04:41:13;;;;;;;19.90;4.23;;;;;;;11.70;100.00;102011.19;7393046;19;20396;-61
2022/07/14 04:43:42;;;;;;;20.40;3.97;;;;;;;11.69;100.00;102004.25;7386163;19;20446;-61
2022/07/14 04:46:12;;;;;;;13.13;3.70;;;;;;;11.83;100.00;101988.63;7390967;19;20426;-61
2022/07/14 04:54:08;;;;;;;6.97;3.17;;;;;;;12.05;100.00;101998.50;7391564;19;20428;-61
2022/07/14 04:56:37;;;;;;;11.67;3.13;;;;;;;12.03;100.00;102007.84;7383649;19;20423;-64
2022/07/14 04:59:26;;;;;;;58.63;31.20;;;;;;;12.12;100.00;102002.31;7392532;19;20462;-61
2022/07/14 05:01:56;;;;;;;53.27;30.57;;;;;;;12.54;100.00;102013.25;7383985;19;20390;-61
2022/07/14 05:04:26;;;;;;;14.30;3.20;;;;;;;12.50;100.00;102037.19;7391472;19;20383;-60
2022/07/14 05:06:55;;;;;;;11.27;3.30;;;;;;;12.40;100.00;102061.66;7384974;19;20376;-61
2022/07/14 05:09:32;;;;;;;10.40;3.90;;;;;;;12.46;100.00;102080.94;7392226;19;20393;-61
2022/07/14 05:12:02;;;;;;;14.10;3.23;;;;;;;12.41;100.00;102094.50;7384473;19;20417;-60
2022/07/14 05:14:32;;;;;;;11.97;2.57;;;;;;;12.47;100.00;102125.03;7391195;19;20392;-61
2022/07/14 05:17:01;;;;;;;12.87;3.47;;;;;;;12.52;100.00;102141.69;7384660;19;20423;-60
2022/07/14 05:19:47;;;;;;;13.17;2.93;;;;;;;12.63;100.00;102151.75;7392255;19;20398;-61
2022/07/14 05:22:16;;;;;;;14.27;3.10;;;;;;;12.68;100.00;102179.69;7385211;19;20415;-60
2022/07/14 05:24:48;;;;;;;9.73;2.10;;;;;;;12.75;100.00;102198.16;7390780;19;20392;-61
2022/07/14 05:27:18;;;;;;;12.23;2.90;;;;;;;12.84;100.00;102219.41;7383514;19;20414;-60
2022/07/14 05:29:47;;;;;;;12.13;2.70;;;;;;;12.88;100.00;102242.09;7391849;19;20407;-61
2022/07/14 05:32:18;;;;;;;15.33;2.13;;;;;;;12.93;100.00;102268.25;7383641;19;20415;-60
2022/07/14 05:34:49;;;;;;;18.77;3.13;;;;;;;13.01;100.00;102286.78;7390322;19;20418;-61
2022/07/14 05:37:18;;;;;;;8.20;2.20;;;;;;;13.06;100.00;102306.97;7385191;19;20429;-61
2022/07/14 05:39:50;;;;;;;11.37;2.53;;;;;;;13.11;100.00;102333.13;7391527;19;20383;-61
2022/07/14 05:42:21;;;;;;;8.00;1.70;;;;;;;13.16;100.00;102354.13;7385346;19;20786;-61
2022/07/14 05:44:51;;;;;;;10.80;2.83;;;;;;;13.21;100.00;102365.66;7394000;19;20435;-60
2022/07/14 05:47:20;;;;;;;17.43;2.30;;;;;;;13.32;100.00;102379.22;7386054;19;20453;-60
2022/07/14 05:49:50;;;;;;;11.23;1.63;;;;;;;13.33;100.00;102368.94;7398729;19;20407;-61
2022/07/14 05:52:20;;;;;;;6.27;2.20;;;;;;;13.46;100.00;102357.59;7390788;19;20506;-60
2022/07/14 05:54:52;;;;;;;7.27;2.00;;;;;;;13.57;100.00;102329.66;7397304;19;20414;-60
2022/07/14 05:57:22;;;;;;;5.83;1.97;;;;;;;13.61;100.00;102290.13;7394886;19;20417;-61
2022/07/14 05:59:52;;;;;;;13.17;3.43;;;;;;;13.65;100.00;102210.78;7398176;19;20401;-61
2022/07/14 06:02:21;;;;;;;7.77;1.37;;;;;;;13.68;100.00;102101.13;7389889;19;20969;-61
2022/07/14 06:04:51;;;;;;;6.20;1.50;;;;;;;13.75;100.00;101971.81;7396930;19;20440;-60
2022/07/14 06:07:20;;;;;;;8.93;1.37;;;;;;;13.82;100.00;101830.34;7388967;19;20450;-60
2022/07/14 06:09:52;;;;;;;8.43;1.57;;;;;;;13.88;100.00;101681.88;7401447;19;20481;-61
2022/07/14 06:12:22;;;;;;;7.53;1.40;;;;;;;13.86;100.00;101533.97;7390939;19;20417;-61
2022/07/14 06:14:51;;;;;;;8.83;1.40;;;;;;;13.91;100.00;101427.81;7396607;19;20400;-60
2022/07/14 06:17:21;;;;;;;4.27;1.20;;;;;;;14.12;100.00;101369.75;7388363;19;20424;-61
2022/07/14 06:19:50;;;;;;;11.73;1.93;;;;;;;14.12;100.00;101320.47;7397671;19;20384;-59
2022/07/14 06:22:20;;;;;;;7.23;2.00;;;;;;;14.17;100.00;101290.38;7389197;19;21055;-61
2022/07/14 06:24:49;;;;;;;7.80;1.00;;;;;;;14.28;100.00;101267.38;7396003;19;20409;-61
2022/07/14 06:27:21;;;;;;;6.20;1.30;;;;;;;14.37;100.00;101267.72;7389153;19;20421;-60
2022/07/14 06:29:51;;;;;;;5.87;1.60;;;;;;;14.47;100.00;101232.56;7397390;19;20469;-61
2022/07/14 06:32:23;;;;;;;21.40;10.77;;;;;;;14.57;100.00;101223.38;7388105;19;20415;-61
2022/07/14 06:34:53;;;;;;;4.40;1.10;;;;;;;14.70;100.00;101199.56;7395704;19;20467;-61
2022/07/14 06:37:22;;;;;;;18.97;10.20;;;;;;;14.79;100.00;101183.44;7389552;19;20426;-61
2022/07/14 06:39:52;;;;;;;5.33;1.17;;;;;;;14.78;100.00;101136.63;7401258;19;20398;-61
2022/07/14 06:42:24;;;;;;;44.67;26.80;;;;;;;15.06;100.00;101120.13;7389957;19;20459;-61
2022/07/14 06:44:53;;;;;;;5.93;1.63;;;;;;;15.09;100.00;101108.94;7395477;19;20411;-60
2022/07/14 06:47:26;;;;;;;7.63;1.13;;;;;;;14.99;100.00;101107.81;7387152;19;20524;-61
2022/07/14 06:49:55;;;;;;;3.93;1.33;;;;;;;14.87;100.00;101108.31;7396551;19;20385;-61
2022/07/14 06:52:25;;;;;;;3.50;0.80;;;;;;;14.82;100.00;101115.97;7388342;19;20498;-61
2022/07/14 06:54:56;;;;;;;8.40;1.53;;;;;;;14.94;100.00;101118.06;7394909;19;20400;-61
2022/07/14 06:57:29;;;;;;;8.73;2.70;;;;;;;15.05;100.00;101126.16;7388150;19;20424;-60
2022/07/14 06:59:58;;;;;;;7.07;1.50;;;;;;;15.09;100.00;101128.00;7396068;19;20399;-60
2022/07/14 07:02:28;;;;;;;5.47;1.13;;;;;;;15.07;100.00;101162.59;7387977;19;20411;-60
2022/07/14 07:07:40;;;;;;;7.73;1.60;;;;;;;15.19;100.00;101209.75;7387083;19;20970;-60
2022/07/14 07:10:10;;;;;;;7.10;1.37;;;;;;;15.18;100.00;101228.75;7395877;19;20390;-61
2022/07/14 07:12:43;;;;;;;5.33;1.17;;;;;;;15.31;100.00;101234.31;7387504;19;20415;-61
2022/07/14 07:15:13;;;;;;;6.27;1.60;;;;;;;15.45;100.00;101268.53;7394209;19;20408;-61
2022/07/14 07:17:42;;;;;;;8.60;1.07;;;;;;;15.61;100.00;101294.16;7386343;19;20423;-61
2022/07/14 07:20:12;;;;;;;8.30;1.63;;;;;;;15.65;100.00;101287.34;7395965;19;20387;-61
2022/07/14 07:22:42;;;;;;;9.17;1.20;;;;;;;15.49;100.00;101312.00;7386514;19;20979;-61
2022/07/14 07:25:12;;;;;;;6.50;1.50;;;;;;;15.39;100.00;101334.25;7393986;19;20762;-61
2022/07/14 07:27:44;;;;;;;8.30;1.40;;;;;;;15.41;100.00;101324.75;7387599;19;20436;-61
2022/07/14 07:30:14;;;;;;;4.97;1.03;;;;;;;15.33;100.00;101347.03;7394833;19;21218;-62
2022/07/14 07:32:44;;;;;;;4.33;0.90;;;;;;;15.48;100.00;101357.06;7385643;19;20419;-60
2022/07/14 07:35:14;;;;;;;5.87;1.73;;;;;;;15.75;100.00;101359.59;7393194;19;20412;-61
2022/07/14 07:37:43;;;;;;;5.10;1.17;;;;;;;15.86;100.00;101364.22;7387312;19;20442;-61
2022/07/14 07:40:14;;;;;;;3.67;0.93;;;;;;;15.89;100.00;101385.16;7394888;19;20390;-61
2022/07/14 07:42:46;;;;;;;8.20;1.10;;;;;;;15.97;100.00;101401.00;7386763;19;20493;-61
2022/07/14 07:45:15;;;;;;;4.17;0.80;;;;;;;15.97;100.00;101393.19;7393200;19;20418;-61
2022/07/14 07:47:45;;;;;;;4.50;1.00;;;;;;;16.03;100.00;101403.78;7386237;19;20780;-61
2022/07/14 07:50:17;;;;;;;4.63;1.00;;;;;;;16.11;100.00;101411.84;7394575;19;20454;-62
2022/07/14 07:52:47;;;;;;;5.37;0.90;;;;;;;16.25;100.00;101400.09;7386825;19;20409;-60
2022/07/14 07:55:16;;;;;;;11.80;1.00;;;;;;;16.33;100.00;101414.22;7392971;19;20745;-61
2022/07/14 07:57:57;;;;;;;4.27;0.80;;;;;;;16.22;100.00;101440.78;7386991;19;20409;-61
2022/07/14 08:00:27;;;;;;;4.17;0.80;;;;;;;16.27;100.00;101444.41;7394031;19;20453;-61
2022/07/14 08:02:57;;;;;;;4.90;0.80;;;;;;;16.41;100.00;101439.59;7387706;19;20426;-62
2022/07/14 08:05:28;;;;;;;5.93;1.40;;;;;;;16.46;100.00;101443.22;7392784;19;20957;-61
2022/07/14 08:08:18;;;;;;;4.20;1.00;;;;;;;16.77;100.00;101433.63;7384776;19;20449;-60
2022/07/14 08:10:47;;;;;;;5.30;0.90;;;;;;;17.10;100.00;101435.41;7396036;19;20405;-62
2022/07/14 08:13:19;;;;;;;5.20;1.57;;;;;;;16.97;100.00;101459.34;7386454;19;20425;-60
2022/07/14 08:15:49;;;;;;;4.20;0.80;;;;;;;16.96;100.00;101470.59;7392462;19;20409;-61
2022/07/14 08:18:18;;;;;;;3.33;0.70;;;;;;;16.92;100.00;101480.06;7385311;19;20420;-60
2022/07/14 08:20:49;;;;;;;5.03;1.90;;;;;;;16.88;100.00;101476.50;7393678;19;20392;-60
2022/07/14 08:23:18;;;;;;;7.43;1.80;;;;;;;16.85;100.00;101471.22;7386680;19;20430;-62
2022/07/14 08:25:48;;;;;;;4.73;1.30;;;;;;;16.95;100.00;101448.88;7392142;19;20423;-62
2022/07/14 08:28:21;;;;;;;3.50;0.93;;;;;;;17.06;100.00;101441.38;7379352;19;20434;-61
2022/07/14 08:30:50;;;;;;;3.30;0.73;;;;;;;17.23;100.00;101448.75;7393276;19;20378;-61
2022/07/14 08:33:20;;;;;;;4.57;1.23;;;;;;;17.05;100.00;101447.44;7385539;19;20429;-61
2022/07/14 08:35:50;;;;;;;3.50;0.80;;;;;;;16.73;100.00;101445.69;7391577;19;20412;-61
2022/07/14 08:38:20;;;;;;;4.10;0.93;;;;;;;16.47;100.00;101434.56;7385208;19;20430;-61
2022/07/14 08:40:50;;;;;;;7.70;0.90;;;;;;;16.41;100.00;101439.59;7393228;19;20445;-61
2022/07/14 08:43:22;;;;;;;4.73;1.73;;;;;;;16.82;100.00;101424.22;7384139;19;20968;-61
2022/07/14 08:45:54;;;;;;;4.30;1.20;;;;;;;17.12;100.00;101441.53;7394510;19;20434;-61
2022/07/14 08:48:24;;;;;;;3.40;0.90;;;;;;;17.29;100.00;101443.69;7383934;19;20442;-60
2022/07/14 08:50:53;;;;;;;4.07;0.70;;;;;;;17.27;100.00;101454.06;7392866;19;20397;-61
2022/07/14 08:53:23;;;;;;;4.47;0.70;;;;;;;17.29;100.00;101446.31;7385205;19;20434;-60
2022/07/14 08:55:54;;;;;;;8.20;1.30;;;;;;;17.45;100.00;101437.13;7390858;19;20419;-61
2022/07/14 08:58:26;;;;;;;5.27;0.70;;;;;;;17.34;100.00;101413.38;7384868;19;20434;-61
2022/07/14 09:00:55;;;;;;;4.30;0.80;;;;;;;17.18;100.00;101412.13;7389530;19;20484;-62
2022/07/14 09:03:25;;;;;;;3.37;1.00;;;;;;;17.05;100.00;101417.88;7386593;19;20460;-61
2022/07/14 09:06:48;;;;;;;4.60;0.90;;;;;;;17.21;100.00;101421.75;7394483;19;20415;-61
2022/07/14 09:09:19;;;;;;;16.10;3.30;;;;;;;17.50;100.00;101416.34;7392052;19;20446;-62
2022/07/14 09:11:54;;;;;;;7.63;2.27;;;;;;;17.54;100.00;101420.81;7386002;19;20386;-61
2022/07/14 09:15:44;;;;;;;9.73;3.23;;;;;;;17.62;100.00;101414.03;7391231;19;20394;-61
2022/07/14 09:17:25;;;;;;;4.40;1.50;;;;;;;17.75;100.00;101409.97;7381346;19;20438;-61
2022/07/14 09:20:08;;;;;;;10.47;1.70;;;;;;;17.31;100.00;101402.88;7396308;19;20409;-61
2022/07/14 09:22:39;;;;;;;13.10;2.10;;;;;;;17.66;100.00;101404.56;7392218;19;20414;-63
2022/07/14 09:25:10;;;;;;;4.20;0.87;;;;;;;17.80;100.00;101407.47;7398190;19;20423;-60
2022/07/14 09:27:41;;;;;;;10.10;4.13;;;;;;;17.82;100.00;101416.22;7389875;19;20417;-61
2022/07/14 09:30:14;;;;;;;23.17;12.70;;;;;;;17.87;100.00;101416.31;7398840;19;20421;-62
2022/07/14 09:32:45;;;;;;;4.67;1.43;;;;;;;17.50;100.00;101408.53;7393638;19;20422;-61
2022/07/14 09:35:15;;;;;;;19.47;9.20;;;;;;;17.72;100.00;101409.00;7398406;19;20991;-60
2022/07/14 09:37:46;;;;;;;6.57;1.30;;;;;;;17.84;100.00;101404.06;7391057;19;20411;-61
2022/07/14 09:40:25;;;;;;;11.53;1.40;;;;;;;17.90;100.00;101391.16;7398807;19;20794;-61
2022/07/14 09:43:04;;;;;;;11.67;1.90;;;;;;;18.17;100.00;101387.41;7390792;19;20413;-62
2022/07/14 09:45:41;;;;;;;3.13;0.70;;;;;;;18.18;100.00;101383.94;7396794;19;20822;-61
2022/07/14 09:48:19;;;;;;;5.73;1.13;;;;;;;18.13;100.00;101389.91;7394823;19;20387;-61
2022/07/14 09:50:51;;;;;;;20.67;5.43;;;;;;;18.26;100.00;101375.38;7398467;19;20477;-61
2022/07/14 09:53:24;;;;;;;7.00;2.03;;;;;;;18.21;100.00;101389.22;7398144;19;21005;-61
2022/07/14 09:55:56;;;;;;;3.80;1.10;;;;;;;18.11;100.00;101389.91;7382051;19;20421;-61
2022/07/14 09:58:28;;;;;;;4.07;1.00;;;;;;;18.11;100.00;101397.72;7398200;19;20380;-60
2022/07/14 10:01:11;;;;;;;11.10;6.13;;;;;;;18.17;100.00;101399.56;7396780;19;20470;-60
2022/07/14 10:03:43;;;;;;;19.87;10.13;;;;;;;18.26;100.00;101402.38;7382046;19;20402;-61
2022/07/14 10:06:14;;;;;;;30.67;6.50;;;;;;;18.06;100.00;101396.75;7395222;19;20424;-62
2022/07/14 10:09:04;;;;;;;17.80;10.40;;;;;;;18.06;100.00;101399.34;7392581;19;20411;-62
2022/07/14 10:11:34;;;;;;;14.40;6.87;;;;;;;17.90;100.00;101388.53;7398405;19;20409;-61
2022/07/14 10:14:04;;;;;;;18.53;3.40;;;;;;;18.07;100.00;101390.66;7389761;19;20581;-62
2022/07/14 10:16:37;;;;;;;6.73;2.00;;;;;;;18.06;100.00;101381.09;7395595;19;20425;-62
2022/07/14 10:19:07;;;;;;;5.87;1.33;;;;;;;18.19;100.00;101377.88;7372404;19;20415;-61
2022/07/14 10:21:43;;;;;;;3.17;0.70;;;;;;;18.21;100.00;101357.88;7397418;19;20914;-61
2022/07/14 10:24:14;;;;;;;5.17;2.53;;;;;;;18.09;100.00;101357.63;7380730;19;20417;-62
2022/07/14 10:26:45;;;;;;;6.10;1.00;;;;;;;18.03;100.00;101357.47;7395016;19;20415;-62
2022/07/14 10:29:15;;;;;;;4.10;0.60;;;;;;;18.16;100.00;101354.28;7376376;19;20427;-61
2022/07/14 10:32:00;;;;;;;6.77;1.70;;;;;;;18.13;100.00;101369.00;7396441;19;20399;-61
2022/07/14 10:34:36;;;;;;;3.50;0.80;;;;;;;18.22;100.00;101374.44;7382596;19;20403;-61
2022/07/14 10:37:07;;;;;;;6.77;2.87;;;;;;;18.32;100.00;101373.75;7396744;19;20473;-61
2022/07/14 10:39:47;;;;;;;11.07;2.07;;;;;;;18.52;100.00;101364.53;7381173;19;20425;-61
2022/07/14 10:42:25;;;;;;;5.37;1.80;;;;;;;18.51;100.00;101363.66;7396579;19;20409;-62
2022/07/14 10:44:55;;;;;;;4.13;1.07;;;;;;;18.42;100.00;101361.78;7381018;19;20543;-63
2022/07/14 10:47:44;;;;;;;3.20;0.90;;;;;;;18.46;100.00;101358.34;7396304;19;20729;-61
2022/07/14 10:50:15;;;;;;;6.93;0.67;;;;;;;18.40;100.00;101353.00;7379655;19;21315;-62
2022/07/14 10:52:53;;;;;;;5.70;0.87;;;;;;;18.56;100.00;101353.31;7397587;19;20419;-62
2022/07/14 10:55:24;;;;;;;3.60;0.70;;;;;;;18.45;100.00;101366.16;7385402;19;20498;-61
2022/07/14 10:58:24;;;;;;;3.47;0.70;;;;;;;18.42;100.00;101340.88;7396649;19;20394;-63
2022/07/14 11:00:58;;;;;;;2.57;0.90;;;;;;;18.44;100.00;101339.16;7367609;19;20425;-61
2022/07/14 11:03:54;;;;;;;3.80;0.90;;;;;;;18.40;100.00;101341.69;7395894;19;20418;-61
2022/07/14 11:06:24;;;;;;;5.50;1.10;;;;;;;18.29;100.00;101339.75;7394196;19;20478;-61
2022/07/14 11:09:24;;;;;;;4.63;0.83;;;;;;;18.18;100.00;101355.22;7375580;19;20885;-61
2022/07/14 11:12:09;;;;;;;3.03;0.70;;;;;;;18.15;100.00;101359.50;7396134;19;20406;-61
2022/07/14 11:14:41;;;;;;;5.53;0.63;;;;;;;18.18;100.00;101350.00;7381302;19;20423;-62
2022/07/14 11:17:40;;;;;;;3.17;0.73;;;;;;;18.32;100.00;101354.59;7395628;19;20376;-61
2022/07/14 11:20:13;;;;;;;2.50;0.80;;;;;;;18.51;100.00;101352.34;7386974;19;20430;-61
2022/07/14 11:22:44;;;;;;;8.03;0.90;;;;;;;18.51;100.00;101354.94;7395743;19;20387;-61
2022/07/14 11:25:28;;;;;;;5.00;1.30;;;;;;;18.53;100.00;101356.75;7380186;19;20415;-62
2022/07/14 11:27:58;;;;;;;40.53;11.33;;;;;;;18.59;100.00;101351.63;7399486;19;20471;-61
2022/07/14 11:30:30;;;;;;;7.47;1.47;;;;;;;18.61;100.00;101351.66;7385269;19;20427;-61
2022/07/14 11:33:06;;;;;;;3.63;0.90;;;;;;;18.61;100.00;101347.31;7395080;19;20384;-62
2022/07/14 11:38:31;;;;;;;4.70;1.50;;;;;;;18.61;100.00;101346.44;7394673;19;20399;-62
2022/07/14 11:41:02;;;;;;;8.40;0.97;;;;;;;18.40;100.00;101358.22;7393339;19;20430;-61
2022/07/14 11:43:55;;;;;;;3.23;0.60;;;;;;;18.21;100.00;101367.47;7391046;19;20391;-64
2022/07/14 11:46:27;;;;;;;3.33;1.10;;;;;;;18.22;100.00;101362.25;7392584;19;20395;-62
2022/07/14 11:48:57;;;;;;;3.23;0.70;;;;;;;18.43;100.00;101346.97;7379669;19;20494;-61
2022/07/14 11:51:30;;;;;;;3.37;0.70;;;;;;;18.54;100.00;101344.53;7392552;19;21132;-60